No particular awareness of the weather is required.    There are no Weather-warnings


Meteo18 Weather Cam more information Meteo18 Weather Cam


Thunder radar more information blitzortung!


Rain radar more information rain snow radar


Visit our other weather sites:

Template documentation
and downloads

And another site



Weather Underground History page Text

Daily Summary for February 19, 2018 Units:  Metric    English   Both
« Previous Day
Next Day »
Daily Weekly Monthly Yearly Custom
  High: Low: Average:
Temperature: -17.8 °C -18.8 °C -16.6 °C
Dew Point: -17.8 °C -19.1 °C -17.3 °C
Humidity: Humidity % 77 % 91 %
Wind Speed: 0 km/h 0 km/h 0.5 km/h
Wind Gust: 0 km/h - -
Wind:- - South
Pressure: 0 hPa 34384.8 hPa -
Precipitation: 50.8 mm    
Historical Graphs
 
 
Tabular Data for February 19, 2018
Time Temperature Dew Point Pressure Wind Wind Speed Wind Gust Humidity Rainfall Rate (Hourly)
-17.8 °C -17.8 °C 0 hPa Calm     Humidity % 0 mm
00:03 -18.1 °C -18.3 °C 34591.4 hPa Calm     97 % 0 mm
00:09 -18.2 °C -18.4 °C 34591.4 hPa Calm     97 % 0 mm
00:15 -18.2 °C -18.4 °C 34591.4 hPa Calm     97 % 0 mm
00:21 -18.2 °C -18.4 °C 34591.4 hPa Calm     97 % 0 mm
00:27 -18.3 °C -18.5 °C 34591.4 hPa Calm     97 % 0 mm
00:33 -18.3 °C -18.6 °C 34591.4 hPa Calm     97 % 0 mm
00:39 -18.4 °C -18.6 °C 34591.4 hPa Calm     97 % 0 mm
00:45 -18.4 °C -18.7 °C 34591.4 hPa Calm     97 % 0 mm
00:57 -18.6 °C -18.8 °C 34591.4 hPa North 2.3 km/h 5.1 km/h 97 % 0 mm
01:03 -18.6 °C -18.8 °C 34591.4 hPa NNE 2.3 km/h 2.6 km/h 97 % 0 mm
01:09 -18.7 °C -18.9 °C 34591.4 hPa Calm   5.1 km/h 97 % 0 mm
01:15 -18.7 °C -18.9 °C 34577.8 hPa Calm   2.6 km/h 97 % 0 mm
01:22 -18.7 °C -18.9 °C 34577.8 hPa Calm     97 % 0 mm
01:28 -18.7 °C -18.9 °C 34577.8 hPa Calm   2.6 km/h 97 % 0 mm
01:34 -18.7 °C -18.9 °C 34577.8 hPa Calm   2.6 km/h 97 % 0 mm
01:40 -18.7 °C -18.9 °C 34577.8 hPa Calm     97 % 0 mm
01:46 -18.6 °C -18.8 °C 34577.8 hPa Calm     97 % 0 mm
01:52 -18.6 °C -18.8 °C 34577.8 hPa Calm     97 % 0 mm
01:58 -18.6 °C -18.8 °C 34577.8 hPa Calm     97 % 0 mm
02:04 -18.7 °C -18.9 °C 34577.8 hPa Calm     97 % 0 mm
02:10 -18.7 °C -18.9 °C 34577.8 hPa Calm     97 % 0 mm
02:16 -18.5 °C -18.7 °C 34577.8 hPa Calm     98 % 0 mm
02:22 -18.4 °C -18.6 °C 34577.8 hPa Calm     98 % 0 mm
02:28 -18.4 °C -18.6 °C 34577.8 hPa Calm     98 % 0 mm
02:34 -18.4 °C -18.6 °C 34577.8 hPa Calm     98 % 0 mm
02:40 -18.4 °C -18.6 °C 34577.8 hPa Calm     98 % 0 mm
02:46 -18.4 °C -18.6 °C 34567.7 hPa Calm     98 % 0 mm
02:52 -18.4 °C -18.6 °C 34567.7 hPa Calm     98 % 0 mm
02:59 -18.4 °C -18.6 °C 34567.7 hPa Calm     98 % 0 mm
03:05 -18.4 °C -18.6 °C 34567.7 hPa Calm     98 % 0 mm
03:11 -18.3 °C -18.5 °C 34567.7 hPa Calm     98 % 0 mm
03:17 -18.3 °C -18.4 °C 34567.7 hPa Calm     98 % 0 mm
03:23 -18.3 °C -18.4 °C 34567.7 hPa Calm     98 % 0 mm
03:29 -18.4 °C -18.6 °C 34567.7 hPa Calm     98 % 0 mm
03:35 -18.5 °C -18.7 °C 34554.1 hPa Calm     98 % 0 mm
03:41 -18.6 °C -18.8 °C 34554.1 hPa Calm     97 % 0 mm
03:47 -18.5 °C -18.7 °C 34554.1 hPa Calm     98 % 0 mm
03:53 -18.3 °C -18.5 °C 34554.1 hPa Calm     98 % 0 mm
03:59 -18.4 °C -18.6 °C 34554.1 hPa Calm     98 % 0 mm
04:05 -18.4 °C -18.6 °C 34554.1 hPa Calm     98 % 0 mm
04:11 -18.4 °C -18.6 °C 34554.1 hPa Calm     98 % 0 mm
04:17 -18.4 °C -18.6 °C 34554.1 hPa Calm     98 % 0 mm
04:23 -18.4 °C -18.6 °C 34554.1 hPa Calm     98 % 0 mm
04:29 -18.5 °C -18.7 °C 34554.1 hPa Calm     98 % 0 mm
04:35 -18.4 °C -18.6 °C 34554.1 hPa Calm     98 % 0 mm
04:41 -18.4 °C -18.6 °C 34554.1 hPa Calm     98 % 0 mm
04:47 -18.4 °C -18.6 °C 34554.1 hPa Calm     98 % 0 mm
04:53 -18.4 °C -18.6 °C 34554.1 hPa Calm     98 % 0 mm
04:59 -18.4 °C -18.6 °C 34554.1 hPa Calm     98 % 0 mm
05:05 -18.4 °C -18.6 °C 34554.1 hPa Calm     98 % 0 mm
05:12 -18.4 °C -18.6 °C 34554.1 hPa Calm     98 % 0 mm
05:18 -18.4 °C -18.6 °C 34554.1 hPa Calm     98 % 0 mm
05:24 -18.5 °C -18.7 °C 34554.1 hPa Calm     97 % 0 mm
05:30 -18.6 °C -18.8 °C 34554.1 hPa Calm     97 % 0 mm
05:36 -18.6 °C -18.8 °C 34554.1 hPa Calm     97 % 0 mm
05:42 -18.6 °C -18.8 °C 34554.1 hPa Calm     97 % 0 mm
05:48 -18.6 °C -18.8 °C 34554.1 hPa Calm     97 % 0 mm
05:54 -18.6 °C -18.8 °C 34554.1 hPa Calm     97 % 0 mm
06:00 -18.6 °C -18.8 °C 34554.1 hPa Calm     97 % 0 mm
06:06 -18.7 °C -18.9 °C 34554.1 hPa Calm     97 % 0 mm
06:12 -18.7 °C -18.9 °C 34554.1 hPa Calm     97 % 0 mm
06:18 -18.7 °C -18.9 °C 34544 hPa Calm     97 % 0 mm
06:24 -18.8 °C -19 °C 34544 hPa Calm     97 % 0 mm
06:30 -18.8 °C -19 °C 34544 hPa Calm     97 % 0 mm
06:36 -18.7 °C -18.9 °C 34544 hPa Calm     97 % 0 mm
06:43 -18.7 °C -18.9 °C 34544 hPa Calm     97 % 0 mm
06:49 -18.7 °C -18.9 °C 34544 hPa Calm     97 % 0 mm
06:55 -18.8 °C -19 °C 34544 hPa Calm     97 % 0 mm
07:01 -18.8 °C -19 °C 34554.1 hPa Calm     97 % 0 mm
07:07 -18.8 °C -19 °C 34554.1 hPa Calm     97 % 0 mm
07:13 -18.8 °C -19 °C 34554.1 hPa Calm     97 % 0 mm
07:19 -18.8 °C -19 °C 34554.1 hPa Calm     97 % 0 mm
07:25 -18.7 °C -18.9 °C 34554.1 hPa Calm     97 % 0 mm
07:31 -18.7 °C -18.9 °C 34544 hPa Calm     98 % 0 mm
07:37 -18.8 °C -19 °C 34544 hPa Calm     97 % 0 mm
07:43 -18.7 °C -18.9 °C 34544 hPa Calm     98 % 0 mm
07:49 -18.8 °C -19 °C 34544 hPa Calm     97 % 0 mm
07:55 -18.7 °C -18.9 °C 34554.1 hPa Calm     97 % 0 mm
08:01 -18.7 °C -18.9 °C 34554.1 hPa Calm     98 % 0 mm
08:07 -18.7 °C -18.9 °C 34554.1 hPa Calm     97 % 0 mm
08:13 -18.8 °C -19.1 °C 34554.1 hPa Calm     97 % 0 mm
08:19 -18.8 °C -19.1 °C 34554.1 hPa Calm     97 % 0 mm
08:25 -18.8 °C -19 °C 34554.1 hPa Calm     97 % 0 mm
08:32 -18.7 °C -18.9 °C 34554.1 hPa Calm     97 % 0 mm
08:38 -18.7 °C -18.9 °C 34554.1 hPa Calm     97 % 0 mm
08:44 -18.7 °C -18.9 °C 34554.1 hPa Calm     97 % 0 mm
08:50 -18.6 °C -18.8 °C 34544 hPa Calm     97 % 0 mm
08:56 -18.6 °C -18.8 °C 34544 hPa Calm     97 % 0 mm
09:02 -18.6 °C -18.8 °C 34544 hPa Calm     97 % 0 mm
09:08 -18.6 °C -18.8 °C 34544 hPa Calm     97 % 0 mm
09:14 -18.4 °C -18.7 °C 34544 hPa Calm     97 % 0 mm
09:20 -18.1 °C -18.3 °C 34544 hPa Calm     97 % 0 mm
09:26 -17.9 °C -18.1 °C 34544 hPa Calm     97 % 0 mm
09:32 -17.6 °C -17.8 °C 34544 hPa Calm     97 % 0 mm
09:38 -17.6 °C -17.8 °C 34544 hPa Calm     97 % 0 mm
09:44 -17.4 °C -17.7 °C 34544 hPa Calm     97 % 0 mm
09:50 -17.4 °C -17.7 °C 34544 hPa Calm     96 % 0 mm
09:56 -17.6 °C -18 °C 34544 hPa Calm     95 % 0 mm
10:02 -17.4 °C -17.8 °C 34544 hPa Calm     95 % 0 mm
10:08 -17.4 °C -17.8 °C 34544 hPa Calm     95 % 0 mm
10:14 -17.4 °C -17.9 °C 34544 hPa Calm     94 % 0 mm
10:20 -17.3 °C -17.7 °C 34533.8 hPa Calm     95 % 0 mm
10:26 -17.1 °C -17.7 °C 34533.8 hPa Calm     93 % 0 mm
10:32 -17 °C -17.8 °C 34533.8 hPa Calm     90 % 0 mm
10:38 -17 °C -17.7 °C 34533.8 hPa Calm     92 % 0 mm
10:44 -16.9 °C -17.7 °C 34533.8 hPa SSE 2.3 km/h 5.1 km/h 90 % 0 mm
10:50 -16.9 °C -17.8 °C 34520.3 hPa Calm   2.6 km/h 89 % 0 mm
10:56 -17 °C -18 °C 34520.3 hPa SW 2.3 km/h 2.6 km/h 88 % 0 mm
11:02 -17.1 °C -18 °C 34520.3 hPa SSW 2.3 km/h 5.1 km/h 89 % 0 mm
11:08 -17.1 °C -17.9 °C 34520.3 hPa Calm   2.6 km/h 90 % 0 mm
11:14 -17.1 °C -17.9 °C 34520.3 hPa SW 5.1 km/h 5.1 km/h 90 % 0 mm
11:20 -17 °C -17.9 °C 34520.3 hPa South 5.1 km/h 5.1 km/h 89 % 0 mm
11:26 -16.9 °C -17.7 °C 34520.3 hPa SSW 2.3 km/h 7.7 km/h 90 % 0 mm
11:32 -16.9 °C -17.8 °C 34520.3 hPa SW 7.6 km/h 7.7 km/h 89 % 0 mm
11:38 -16.7 °C -17.6 °C 34520.3 hPa SSE 2.3 km/h 10.3 km/h 90 % 0 mm
11:44 -16.6 °C -17.4 °C 34520.3 hPa SSW 2.3 km/h 5.1 km/h 89 % 0 mm
11:50 -16.6 °C -17.5 °C 34520.3 hPa SE 2.3 km/h 10.3 km/h 89 % 0 mm
11:56 -16.4 °C -17.3 °C 34520.3 hPa South 2.3 km/h 2.6 km/h 89 % 0 mm
12:02 -16.3 °C -17.3 °C 34520.3 hPa South 2.3 km/h 15.6 km/h 88 % 0 mm
12:08 -16.2 °C -17.2 °C 34520.3 hPa South 2.3 km/h 5.1 km/h 88 % 7.62 mm
12:14 -16.2 °C -17.2 °C 34520.3 hPa SSW 7.6 km/h 7.7 km/h 87 % 7.62 mm
12:20 -16.1 °C -17.2 °C 34520.3 hPa South 2.3 km/h 7.7 km/h 87 % 7.62 mm
12:26 -15.9 °C -16.9 °C 34520.3 hPa South 2.3 km/h 5.1 km/h 88 % 7.62 mm
12:32 -15.8 °C -16.9 °C 34520.3 hPa SSW 2.3 km/h 10.3 km/h 86 % 7.62 mm
12:38 -15.7 °C -16.8 °C 34510.1 hPa Calm   5.1 km/h 86 % 7.62 mm
12:44 -15.6 °C -16.8 °C 34510.1 hPa SSE 5.1 km/h 5.1 km/h 85 % 7.62 mm
12:50 -15.5 °C -16.8 °C 34510.1 hPa Calm   7.7 km/h 85 % 7.62 mm
12:56 -15.4 °C -16.8 °C 34510.1 hPa ESE 2.3 km/h 5.1 km/h 84 % 7.62 mm
13:02 -15.4 °C -16.8 °C 34496.6 hPa SW 2.3 km/h 7.7 km/h 83 % 7.62 mm
13:08 -15.3 °C -16.7 °C 34496.6 hPa Calm   5.1 km/h 83 % 0 mm
13:14 -15.2 °C -16.6 °C 34496.6 hPa SW 2.3 km/h 5.1 km/h 83 % 0 mm
13:20 -15.1 °C -16.6 °C 34496.6 hPa Calm   5.1 km/h 83 % 0 mm
13:26 -14.9 °C -16.3 °C 34496.6 hPa South 2.3 km/h 5.1 km/h 84 % 0 mm
13:32 -14.9 °C -16.4 °C 34496.6 hPa SSW 2.3 km/h 5.1 km/h 82 % 0 mm
13:38 -14.8 °C -16.4 °C 34496.6 hPa South 2.3 km/h 2.6 km/h 82 % 0 mm
13:44 -14.8 °C -16.4 °C 34496.6 hPa Calm   2.6 km/h 81 % 0 mm
13:50 -14.7 °C -16.3 °C 34496.6 hPa Calm     81 % 0 mm
13:56 -14.6 °C -16.3 °C 34496.6 hPa SSE 2.3 km/h 5.1 km/h 81 % 0 mm
14:02 -14.6 °C -16.2 °C 34486.4 hPa Calm   2.6 km/h 81 % 0 mm
14:08 -14.6 °C -16.3 °C 34486.4 hPa WSW 2.3 km/h 5.1 km/h 81 % 0 mm
14:14 -14.6 °C -16.3 °C 34486.4 hPa SW 5.1 km/h 5.1 km/h 81 % 0 mm
14:20 -14.7 °C -16.6 °C 34476.3 hPa Calm   2.6 km/h 79 % 0 mm
14:26 -14.6 °C -16.4 °C 34476.3 hPa Calm   2.6 km/h 80 % 0 mm
14:33 -14.4 °C -16.3 °C 34476.3 hPa Calm   2.6 km/h 79 % 0 mm
14:39 -14.4 °C -16.4 °C 34476.3 hPa Calm   5.1 km/h 78 % 0 mm
14:45 -14.5 °C -16.6 °C 34476.3 hPa SSW 2.3 km/h 2.6 km/h 77 % 0 mm
14:51 -14.6 °C -16.6 °C 34476.3 hPa Calm   2.6 km/h 77 % 0 mm
14:57 -14.5 °C -16.4 °C 34476.3 hPa Calm   2.6 km/h 78 % 0 mm
15:03 -14.4 °C -16.3 °C 34476.3 hPa WSW 2.3 km/h 2.6 km/h 78 % 0 mm
15:09 -14.4 °C -16.4 °C 34476.3 hPa Calm   2.6 km/h 78 % 0 mm
15:15 -14.4 °C -16.4 °C 34462.7 hPa Calm   2.6 km/h 77 % 0 mm
15:21 -14.4 °C -16.5 °C 34462.7 hPa Calm     77 % 0 mm
15:27 -14.3 °C -16.2 °C 34462.7 hPa Calm   2.6 km/h 79 % 0 mm
15:33 -14.4 °C -16.4 °C 34462.7 hPa Calm   2.6 km/h 77 % 0 mm
15:39 -14.4 °C -16.3 °C 34462.7 hPa Calm   5.1 km/h 78 % 0 mm
15:45 -14.4 °C -16.3 °C 34462.7 hPa Calm     78 % 0 mm
15:51 -14.4 °C -16.3 °C 34462.7 hPa Calm     78 % 0 mm
15:57 -14.4 °C -16.3 °C 34462.7 hPa Calm     79 % 0 mm
16:03 -14.4 °C -16.4 °C 34462.7 hPa Calm     78 % 0 mm
16:09 -14.4 °C -16.2 °C 34452.6 hPa Calm     80 % 0 mm
16:15 -14.4 °C -16.2 °C 34462.7 hPa Calm   2.6 km/h 80 % 0 mm
16:21 -14.5 °C -16.3 °C 34452.6 hPa Calm   2.6 km/h 80 % 0 mm
16:27 -14.5 °C -16.3 °C 34452.6 hPa Calm   2.6 km/h 80 % 0 mm
16:33 -14.6 °C -16.3 °C 34462.7 hPa Calm   2.6 km/h 80 % 0 mm
16:39 -14.6 °C -16.3 °C 34452.6 hPa Calm     80 % 0 mm
16:45 -14.6 °C -16.2 °C 34462.7 hPa Calm     81 % 0 mm
16:51 -14.6 °C -16.2 °C 34452.6 hPa Calm     81 % 0 mm
16:57 -14.6 °C -16.2 °C 34452.6 hPa Calm     81 % 0 mm
17:04 -14.6 °C -16.2 °C 34452.6 hPa SSW 2.3 km/h 2.6 km/h 81 % 0 mm
17:10 -14.6 °C -16.3 °C 34452.6 hPa Calm   2.6 km/h 80 % 0 mm
17:16 -14.6 °C -16.1 °C 34452.6 hPa Calm   2.6 km/h 82 % 0 mm
17:22 -14.6 °C -16.1 °C 34452.6 hPa Calm   2.6 km/h 82 % 0 mm
17:28 -14.6 °C -16.1 °C 34452.6 hPa Calm     83 % 0 mm
17:34 -14.6 °C -16.1 °C 34452.6 hPa Calm     83 % 0 mm
17:40 -14.6 °C -16.1 °C 34452.6 hPa Calm     83 % 0 mm
17:46 -14.6 °C -16.2 °C 34452.6 hPa Calm     82 % 0 mm
17:52 -14.6 °C -16.1 °C 34452.6 hPa Calm     83 % 0 mm
17:58 -14.6 °C -16.1 °C 34452.6 hPa Calm     83 % 0 mm
18:04 -14.7 °C -16.2 °C 34452.6 hPa Calm     83 % 0 mm
18:10 -14.7 °C -16.1 °C 34452.6 hPa Calm     84 % 0 mm
18:16 -14.8 °C -16.2 °C 34452.6 hPa Calm     84 % 0 mm
18:22 -14.8 °C -16.1 °C 34452.6 hPa Calm     85 % 0 mm
18:28 -14.8 °C -16.1 °C 34452.6 hPa Calm     85 % 0 mm
18:34 -14.8 °C -16.1 °C 34452.6 hPa Calm     86 % 0 mm
18:40 -14.9 °C -16 °C 34442.4 hPa Calm     87 % 0 mm
18:46 -14.9 °C -15.9 °C 34452.6 hPa Calm     88 % 0 mm
18:53 -14.9 °C -15.9 °C 34452.6 hPa Calm     88 % 0 mm
18:59 -14.9 °C -15.9 °C 34442.4 hPa Calm     89 % 0 mm
19:05 -15 °C -15.9 °C 34442.4 hPa Calm     89 % 7.62 mm
19:11 -15.1 °C -15.9 °C 34442.4 hPa Calm     90 % 7.62 mm
19:17 -15.1 °C -15.9 °C 34442.4 hPa Calm     90 % 7.62 mm
19:23 -15.1 °C -15.8 °C 34442.4 hPa Calm     91 % 7.62 mm
19:29 -15.2 °C -15.9 °C 34442.4 hPa Calm     91 % 7.62 mm
19:35 -15.2 °C -15.8 °C 34442.4 hPa Calm     92 % 7.62 mm
19:41 -15.2 °C -15.9 °C 34442.4 hPa SSW 2.3 km/h 2.6 km/h 92 % 7.62 mm
19:47 -15.2 °C -15.9 °C 34442.4 hPa Calm     92 % 7.62 mm
19:53 -15.2 °C -15.8 °C 34428.8 hPa Calm     93 % 7.62 mm
19:59 -15.2 °C -15.8 °C 34428.8 hPa Calm     93 % 7.62 mm
20:05 -15.2 °C -15.8 °C 34428.8 hPa Calm     93 % 0 mm
20:11 -15.2 °C -15.8 °C 34428.8 hPa Calm     93 % 7.62 mm
20:17 -15.3 °C -15.8 °C 34428.8 hPa Calm     93 % 7.62 mm
20:23 -15.3 °C -15.8 °C 34428.8 hPa Calm     94 % 7.62 mm
20:29 -15.3 °C -15.8 °C 34428.8 hPa Calm     94 % 7.62 mm
20:35 -15.3 °C -15.8 °C 34428.8 hPa Calm     94 % 7.62 mm
20:41 -15.3 °C -15.8 °C 34428.8 hPa Calm     94 % 7.62 mm
20:47 -15.4 °C -15.9 °C 34428.8 hPa Calm     94 % 7.62 mm
20:53 -15.4 °C -15.8 °C 34428.8 hPa Calm     95 % 7.62 mm
20:59 -15.4 °C -15.8 °C 34428.8 hPa Calm     95 % 7.62 mm
21:05 -15.4 °C -15.8 °C 34428.8 hPa Calm     95 % 7.62 mm
21:11 -15.4 °C -15.8 °C 34428.8 hPa Calm     95 % 7.62 mm
21:17 -15.4 °C -15.8 °C 34428.8 hPa Calm     95 % 7.62 mm
21:23 -15.4 °C -15.8 °C 34418.7 hPa Calm     95 % 7.62 mm
21:29 -15.4 °C -15.8 °C 34418.7 hPa Calm     95 % 7.62 mm
21:35 -15.4 °C -15.8 °C 34418.7 hPa Calm     95 % 7.62 mm
21:41 -15.4 °C -15.8 °C 34418.7 hPa Calm     95 % 7.62 mm
21:47 -15.4 °C -15.8 °C 34418.7 hPa Calm     95 % 7.62 mm
21:53 -15.4 °C -15.8 °C 34418.7 hPa Calm     96 % 7.62 mm
21:59 -15.4 °C -15.8 °C 34418.7 hPa Calm     96 % 7.62 mm
22:05 -15.4 °C -15.8 °C 34418.7 hPa Calm     96 % 12.7 mm
22:11 -15.4 °C -15.8 °C 34418.7 hPa Calm     96 % 7.62 mm
22:17 -15.4 °C -15.8 °C 34418.7 hPa Calm     96 % 7.62 mm
22:23 -15.4 °C -15.8 °C 34418.7 hPa Calm     96 % 7.62 mm
22:29 -15.5 °C -15.8 °C 34418.7 hPa Calm     96 % 12.7 mm
22:35 -15.5 °C -15.8 °C 34405.1 hPa Calm     96 % 12.7 mm
22:41 -15.5 °C -15.8 °C 34405.1 hPa Calm     96 % 12.7 mm
22:47 -15.5 °C -15.8 °C 34405.1 hPa Calm     96 % 12.7 mm
22:53 -15.5 °C -15.8 °C 34405.1 hPa Calm   2.6 km/h 96 % 12.7 mm
22:59 -15.5 °C -15.8 °C 34405.1 hPa Calm   5.1 km/h 96 % 12.7 mm
23:05 -15.5 °C -15.8 °C 34405.1 hPa Calm   2.6 km/h 96 % 12.7 mm
23:11 -15.5 °C -15.8 °C 34405.1 hPa SSE 2.3 km/h 5.1 km/h 96 % 12.7 mm
23:18 -15.5 °C -15.8 °C 34395 hPa Calm   2.6 km/h 96 % 12.7 mm
23:24 -15.6 °C -15.9 °C 34395 hPa SE 5.1 km/h 5.1 km/h 96 % 12.7 mm
23:30 -15.6 °C -15.9 °C 34395 hPa Calm   2.6 km/h 96 % 12.7 mm
23:36 -15.6 °C -15.9 °C 34395 hPa Calm   2.6 km/h 96 % 12.7 mm
23:42 -15.6 °C -15.9 °C 34384.8 hPa Calm   2.6 km/h 96 % 12.7 mm
23:48 -15.6 °C -15.9 °C 34384.8 hPa Calm   2.6 km/h 96 % 12.7 mm
23:54 -15.6 °C -15.9 °C 34395 hPa Calm     96 % 12.7 mm
Meteo18
Compliments of Weather Underground - 4 mb

Script developed by  Jim McMurry - jmcmurry@mwt.net Adapted for the template by  Wim van der Kuil - Leuven-Template.eu

You find our weather info also at:

European Weather Network

Weather Underground

Equipment we use:

Weather-station
Davis Vue

Weather-program
Meteobridge

Weather-server
Raspberry PI 2 B+

Provider
1 and 1

Davis Vue

Meteobridge

Raspberry PI 2 B+

1 and 1